QTR378 UZTT-OTHH
Flight info
| Callsign | QTR378 |
|---|---|
| Flight time | 5h 8m |
| Altitude | 36000 |
| Route | K0837F360 BAMGU2C BAMGU L141 EKVIT L170 MOSOM A114 OLRAM L148 AMDAR/N0451F360 M875 SITAX A466 SAJAN G325 ZB J133 PARLO G325 PG T385 TAPDO G652 TOKRA DCT 21N053E 21N051E DCT DEMTA DCT LAEEB LAEEB1J |
| Aircraft | A320/M-SDE3FGHIRWY/LB1 |
Departure
| Time | 2026-05-07 13:39 |
|---|---|
| Airport | Tashkent International Airport (UZTT) |
Arrival
| Time | 2026-05-07 18:48 |
|---|---|
| Airport | Hamad International Airport (OTHH) |
| Time | Latitude | Longitude | Altitude | Speed | Heading |
|---|---|---|---|---|---|
| 2026-05-07 12:55 | 41.26107 | 69.26697 | 1382 ft | 0 kts | 315° |
| 2026-05-07 13:27 | 41.26102 | 69.26702 | 1377 ft | 4 kts | 315° |
| 2026-05-07 13:28 | 41.26084 | 69.26727 | 1380 ft | 4 kts | 314° |
| 2026-05-07 13:28 | 41.26064 | 69.26754 | 1377 ft | 4 kts | 314° |
| 2026-05-07 13:28 | 41.26049 | 69.26775 | 1382 ft | 3 kts | 314° |
| 2026-05-07 13:28 | 41.26034 | 69.26803 | 1382 ft | 4 kts | 284° |
| 2026-05-07 13:29 | 41.26034 | 69.26836 | 1380 ft | 4 kts | 248° |
| 2026-05-07 13:29 | 41.26037 | 69.26847 | 1381 ft | 0 kts | 246° |
| 2026-05-07 13:32 | 41.26037 | 69.26846 | 1378 ft | 1 kts | 246° |
| 2026-05-07 13:32 | 41.26032 | 69.26832 | 1380 ft | 3 kts | 246° |
| 2026-05-07 13:32 | 41.26021 | 69.26799 | 1378 ft | 5 kts | 246° |
| 2026-05-07 13:32 | 41.26005 | 69.26749 | 1382 ft | 7 kts | 246° |
| 2026-05-07 13:33 | 41.25982 | 69.26680 | 1379 ft | 9 kts | 246° |
| 2026-05-07 13:33 | 41.25953 | 69.26595 | 1383 ft | 11 kts | 246° |
| 2026-05-07 13:33 | 41.25919 | 69.26501 | 1379 ft | 12 kts | 237° |
| 2026-05-07 13:33 | 41.25861 | 69.26428 | 1382 ft | 11 kts | 220° |
| 2026-05-07 13:34 | 41.25822 | 69.26383 | 1383 ft | 0 kts | 220° |
| 2026-05-07 13:36 | 41.25821 | 69.26383 | 1387 ft | 0 kts | 220° |
| 2026-05-07 13:36 | 41.25818 | 69.26379 | 1387 ft | 1 kts | 220° |
| 2026-05-07 13:36 | 41.25806 | 69.26365 | 1388 ft | 3 kts | 218° |
| 2026-05-07 13:36 | 41.25782 | 69.26352 | 1390 ft | 4 kts | 195° |
| 2026-05-07 13:37 | 41.25760 | 69.26350 | 1399 ft | 3 kts | 178° |
| 2026-05-07 13:37 | 41.25742 | 69.26355 | 1399 ft | 3 kts | 163° |
| 2026-05-07 13:37 | 41.25725 | 69.26367 | 1401 ft | 3 kts | 147° |
| 2026-05-07 13:37 | 41.25697 | 69.26395 | 1402 ft | 7 kts | 141° |
| 2026-05-07 13:38 | 41.25667 | 69.26457 | 1402 ft | 9 kts | 103° |
| 2026-05-07 13:38 | 41.25672 | 69.26543 | 1399 ft | 10 kts | 82° |
| 2026-05-07 13:38 | 41.25700 | 69.26795 | 1399 ft | 58 kts | 81° |
| 2026-05-07 13:38 | 41.25789 | 69.27602 | 1402 ft | 115 kts | 82° |
| 2026-05-07 13:39 | 41.25928 | 69.28862 | 1394 ft | 159 kts | 81° |
| 2026-05-07 13:39 | 41.26097 | 69.30467 | 1523 ft | 184 kts | 83° |
| 2026-05-07 13:39 | 41.26287 | 69.32142 | 2125 ft | 183 kts | 79° |
| 2026-05-07 13:39 | 41.26473 | 69.33834 | 2672 ft | 190 kts | 80° |
| 2026-05-07 13:40 | 41.26685 | 69.35653 | 2831 ft | 210 kts | 79° |
| 2026-05-07 13:40 | 41.26916 | 69.37621 | 3187 ft | 217 kts | 80° |
| 2026-05-07 13:40 | 41.27130 | 69.39612 | 3701 ft | 219 kts | 81° |
| 2026-05-07 13:40 | 41.27341 | 69.41622 | 4216 ft | 220 kts | 82° |
| 2026-05-07 13:41 | 41.27554 | 69.43644 | 4725 ft | 222 kts | 81° |
| 2026-05-07 13:41 | 41.27772 | 69.45689 | 5241 ft | 224 kts | 81° |
| 2026-05-07 13:41 | 41.27993 | 69.47744 | 5753 ft | 225 kts | 81° |
| 2026-05-07 13:41 | 41.28214 | 69.49810 | 6269 ft | 226 kts | 81° |
| 2026-05-07 13:42 | 41.28311 | 69.51875 | 6726 ft | 229 kts | 101° |
| 2026-05-07 13:42 | 41.27593 | 69.53770 | 7173 ft | 232 kts | 137° |
| 2026-05-07 13:42 | 41.26174 | 69.54744 | 7606 ft | 234 kts | 170° |
| 2026-05-07 13:42 | 41.24560 | 69.55073 | 8054 ft | 236 kts | 172° |
| 2026-05-07 13:43 | 41.22943 | 69.55374 | 8513 ft | 239 kts | 172° |
| 2026-05-07 13:43 | 41.21270 | 69.55662 | 8987 ft | 240 kts | 178° |
| 2026-05-07 13:43 | 41.19657 | 69.55208 | 9406 ft | 240 kts | 212° |
| 2026-05-07 13:43 | 41.18481 | 69.53643 | 9710 ft | 247 kts | 245° |
| 2026-05-07 13:44 | 41.18046 | 69.51372 | 9855 ft | 265 kts | 263° |
| 2026-05-07 13:44 | 41.17789 | 69.48889 | 9982 ft | 286 kts | 263° |
| 2026-05-07 13:44 | 41.17503 | 69.46132 | 10117 ft | 308 kts | 263° |
| 2026-05-07 13:44 | 41.17202 | 69.43271 | 10253 ft | 327 kts | 262° |
| 2026-05-07 13:45 | 41.16871 | 69.40205 | 10395 ft | 344 kts | 262° |
| 2026-05-07 13:45 | 41.16521 | 69.37014 | 10779 ft | 352 kts | 262° |
| 2026-05-07 13:45 | 41.16162 | 69.33788 | 11322 ft | 355 kts | 262° |
| 2026-05-07 13:45 | 41.15795 | 69.30533 | 11929 ft | 357 kts | 262° |
| 2026-05-07 13:46 | 41.15427 | 69.27272 | 12559 ft | 359 kts | 262° |
| 2026-05-07 13:46 | 41.15056 | 69.23985 | 13189 ft | 361 kts | 262° |
| 2026-05-07 13:46 | 41.14686 | 69.20687 | 13797 ft | 362 kts | 262° |
| 2026-05-07 13:46 | 41.14180 | 69.17405 | 14394 ft | 365 kts | 250° |
| 2026-05-07 13:47 | 41.12907 | 69.14497 | 14935 ft | 369 kts | 229° |
| 2026-05-07 13:47 | 41.10878 | 69.12399 | 15470 ft | 374 kts | 207° |
| 2026-05-07 13:47 | 41.08373 | 69.11449 | 15998 ft | 380 kts | 185° |
| 2026-05-07 13:47 | 41.05726 | 69.11675 | 16524 ft | 384 kts | 173° |
| 2026-05-07 13:48 | 41.03066 | 69.12165 | 17045 ft | 387 kts | 173° |
| 2026-05-07 13:48 | 41.00395 | 69.12675 | 17555 ft | 390 kts | 173° |
| 2026-05-07 13:48 | 40.97695 | 69.13193 | 18082 ft | 393 kts | 173° |
| 2026-05-07 13:48 | 40.95043 | 69.13447 | 18580 ft | 394 kts | 184° |
| 2026-05-07 13:49 | 40.92258 | 69.12984 | 19105 ft | 394 kts | 195° |
| 2026-05-07 13:49 | 40.89661 | 69.11818 | 19616 ft | 395 kts | 207° |
| 2026-05-07 13:49 | 40.87280 | 69.10016 | 20115 ft | 396 kts | 215° |
| 2026-05-07 13:49 | 40.84957 | 69.08028 | 20617 ft | 399 kts | 214° |
| 2026-05-07 13:50 | 40.82616 | 69.06045 | 21101 ft | 402 kts | 214° |
| 2026-05-07 13:50 | 40.80251 | 69.04052 | 21550 ft | 404 kts | 214° |
| 2026-05-07 13:50 | 40.77919 | 69.01972 | 21977 ft | 406 kts | 220° |
| 2026-05-07 13:50 | 40.75812 | 68.99486 | 22404 ft | 407 kts | 225° |
| 2026-05-07 13:51 | 40.73753 | 68.96912 | 22798 ft | 409 kts | 225° |
| 2026-05-07 13:51 | 40.71682 | 68.94313 | 23190 ft | 412 kts | 225° |
| 2026-05-07 13:51 | 40.69604 | 68.91705 | 23571 ft | 414 kts | 225° |
| 2026-05-07 13:51 | 40.67539 | 68.89111 | 23944 ft | 416 kts | 225° |
| 2026-05-07 13:52 | 40.65438 | 68.86476 | 24303 ft | 419 kts | 225° |
| 2026-05-07 13:52 | 40.63321 | 68.83834 | 24660 ft | 421 kts | 225° |
| 2026-05-07 13:52 | 40.61193 | 68.81183 | 24983 ft | 423 kts | 225° |
| 2026-05-07 13:52 | 40.59133 | 68.78409 | 25328 ft | 423 kts | 232° |
| 2026-05-07 13:53 | 40.57443 | 68.75239 | 25655 ft | 423 kts | 242° |
| 2026-05-07 13:53 | 40.56195 | 68.71751 | 25964 ft | 423 kts | 251° |
| 2026-05-07 13:53 | 40.55222 | 68.68087 | 26274 ft | 425 kts | 252° |
| 2026-05-07 13:53 | 40.54243 | 68.64407 | 26597 ft | 427 kts | 250° |
| 2026-05-07 13:54 | 40.52950 | 68.60885 | 26892 ft | 431 kts | 239° |
| 2026-05-07 13:54 | 40.51126 | 68.57739 | 27193 ft | 435 kts | 228° |
| 2026-05-07 13:54 | 40.48836 | 68.55129 | 27479 ft | 440 kts | 216° |
| 2026-05-07 13:54 | 40.46147 | 68.53163 | 27763 ft | 445 kts | 205° |
| 2026-05-07 13:55 | 40.43208 | 68.51858 | 28124 ft | 447 kts | 199° |
| 2026-05-07 13:55 | 40.40243 | 68.50652 | 28527 ft | 445 kts | 200° |
| 2026-05-07 13:55 | 40.37293 | 68.49441 | 28925 ft | 444 kts | 200° |
| 2026-05-07 13:55 | 40.34342 | 68.48222 | 29316 ft | 443 kts | 200° |
| 2026-05-07 13:56 | 40.31408 | 68.47008 | 29705 ft | 442 kts | 200° |
| 2026-05-07 13:56 | 40.28477 | 68.45801 | 30086 ft | 441 kts | 200° |
| 2026-05-07 13:56 | 40.25556 | 68.44603 | 30456 ft | 440 kts | 200° |
| 2026-05-07 13:56 | 40.22634 | 68.43406 | 30828 ft | 439 kts | 200° |
| 2026-05-07 13:57 | 40.19720 | 68.42212 | 31196 ft | 438 kts | 200° |
| 2026-05-07 13:57 | 40.16821 | 68.41027 | 31561 ft | 437 kts | 200° |
| 2026-05-07 13:57 | 40.13920 | 68.39845 | 31921 ft | 436 kts | 200° |
| 2026-05-07 13:57 | 40.11035 | 68.38670 | 32286 ft | 435 kts | 200° |
| 2026-05-07 13:58 | 40.08147 | 68.37495 | 32642 ft | 433 kts | 200° |
| 2026-05-07 13:58 | 40.05268 | 68.36322 | 32996 ft | 432 kts | 200° |
| 2026-05-07 13:58 | 40.02405 | 68.35155 | 33337 ft | 431 kts | 200° |
| 2026-05-07 13:58 | 39.99540 | 68.33987 | 33667 ft | 430 kts | 200° |
| 2026-05-07 13:59 | 39.96681 | 68.32821 | 33969 ft | 430 kts | 199° |
| 2026-05-07 13:59 | 39.93834 | 68.31663 | 34268 ft | 429 kts | 199° |
| 2026-05-07 13:59 | 39.90982 | 68.30508 | 34549 ft | 428 kts | 199° |
| 2026-05-07 13:59 | 39.88142 | 68.29358 | 34814 ft | 428 kts | 200° |
| 2026-05-07 14:00 | 39.85297 | 68.28205 | 35063 ft | 428 kts | 200° |
| 2026-05-07 14:00 | 39.82454 | 68.27054 | 35308 ft | 427 kts | 200° |
| 2026-05-07 14:00 | 39.79621 | 68.25912 | 35536 ft | 427 kts | 200° |
| 2026-05-07 14:00 | 39.76782 | 68.24766 | 35756 ft | 427 kts | 200° |
| 2026-05-07 14:01 | 39.73952 | 68.23621 | 35943 ft | 427 kts | 200° |
| 2026-05-07 14:01 | 39.68254 | 68.21321 | 35988 ft | 436 kts | 200° |
| 2026-05-07 14:02 | 39.62361 | 68.18950 | 35985 ft | 444 kts | 200° |
| 2026-05-07 14:02 | 39.56438 | 68.16571 | 35985 ft | 447 kts | 200° |
| 2026-05-07 14:03 | 39.50497 | 68.14344 | 35988 ft | 448 kts | 198° |
| 2026-05-07 14:03 | 39.44481 | 68.12248 | 35992 ft | 448 kts | 198° |
| 2026-05-07 14:04 | 39.38457 | 68.10149 | 35998 ft | 448 kts | 198° |
| 2026-05-07 14:04 | 39.32441 | 68.08008 | 35997 ft | 449 kts | 198° |
| 2026-05-07 14:05 | 39.26420 | 68.05841 | 35998 ft | 449 kts | 198° |
| 2026-05-07 14:05 | 39.20396 | 68.03683 | 35999 ft | 450 kts | 198° |
| 2026-05-07 14:06 | 39.14362 | 68.01541 | 36003 ft | 450 kts | 198° |
| 2026-05-07 14:06 | 39.08327 | 67.99411 | 36001 ft | 450 kts | 198° |
| 2026-05-07 14:07 | 39.02292 | 67.97273 | 36004 ft | 450 kts | 198° |
| 2026-05-07 14:07 | 38.96301 | 67.94989 | 36001 ft | 449 kts | 200° |
| 2026-05-07 14:08 | 38.90341 | 67.92579 | 36002 ft | 449 kts | 200° |
| 2026-05-07 14:08 | 38.84377 | 67.90181 | 36004 ft | 449 kts | 200° |
| 2026-05-07 14:09 | 38.78405 | 67.87836 | 36002 ft | 449 kts | 200° |
| 2026-05-07 14:09 | 38.72427 | 67.85495 | 35998 ft | 450 kts | 200° |
| 2026-05-07 14:10 | 38.66425 | 67.83174 | 35997 ft | 450 kts | 199° |
| 2026-05-07 14:10 | 38.60423 | 67.80897 | 35998 ft | 450 kts | 199° |
| 2026-05-07 14:11 | 38.54405 | 67.78622 | 35995 ft | 450 kts | 199° |
| 2026-05-07 14:11 | 38.48399 | 67.76343 | 35987 ft | 451 kts | 199° |
| 2026-05-07 14:12 | 38.42386 | 67.74069 | 35975 ft | 451 kts | 199° |
| 2026-05-07 14:12 | 38.36371 | 67.71792 | 35966 ft | 451 kts | 199° |
| 2026-05-07 14:13 | 38.30343 | 67.69507 | 35962 ft | 451 kts | 199° |
| 2026-05-07 14:13 | 38.24361 | 67.67251 | 35960 ft | 452 kts | 199° |
| 2026-05-07 14:14 | 38.18315 | 67.65063 | 35955 ft | 453 kts | 198° |
| 2026-05-07 14:14 | 38.12162 | 67.63115 | 35948 ft | 453 kts | 197° |
| 2026-05-07 14:15 | 38.06025 | 67.61244 | 35942 ft | 453 kts | 197° |
| 2026-05-07 14:15 | 37.99949 | 67.59336 | 35938 ft | 453 kts | 197° |
| 2026-05-07 14:16 | 37.93841 | 67.57375 | 35932 ft | 453 kts | 197° |
| 2026-05-07 14:16 | 37.87731 | 67.55414 | 35923 ft | 453 kts | 197° |
| 2026-05-07 14:17 | 37.81612 | 67.53472 | 35914 ft | 454 kts | 197° |
| 2026-05-07 14:17 | 37.75482 | 67.51530 | 35904 ft | 454 kts | 197° |
| 2026-05-07 14:18 | 37.70400 | 67.49921 | 35898 ft | 454 kts | 197° |
| 2026-05-07 14:18 | 37.64273 | 67.47982 | 35893 ft | 454 kts | 197° |
| 2026-05-07 14:19 | 37.58142 | 67.46045 | 35887 ft | 454 kts | 197° |
| 2026-05-07 14:19 | 37.52011 | 67.44115 | 35886 ft | 454 kts | 197° |
| 2026-05-07 14:20 | 37.45868 | 67.42186 | 35887 ft | 455 kts | 197° |
| 2026-05-07 14:20 | 37.39735 | 67.40257 | 35885 ft | 454 kts | 198° |
| 2026-05-07 14:21 | 37.33601 | 67.38327 | 35884 ft | 455 kts | 198° |
| 2026-05-07 14:21 | 37.27450 | 67.36410 | 35881 ft | 455 kts | 196° |
| 2026-05-07 14:22 | 37.20064 | 67.36165 | 35866 ft | 466 kts | 171° |
| 2026-05-07 14:22 | 37.14916 | 67.38449 | 35861 ft | 473 kts | 153° |
| 2026-05-07 14:23 | 37.09145 | 67.42480 | 35517 ft | 476 kts | 153° |
| 2026-05-07 14:23 | 37.06244 | 67.44497 | 35136 ft | 476 kts | 153° |
| 2026-05-07 14:23 | 37.03371 | 67.46486 | 35208 ft | 470 kts | 153° |
| 2026-05-07 14:23 | 37.00499 | 67.48469 | 35458 ft | 471 kts | 153° |
| 2026-05-07 14:24 | 36.97666 | 67.50432 | 35699 ft | 471 kts | 153° |
| 2026-05-07 14:24 | 36.94765 | 67.52450 | 35843 ft | 473 kts | 153° |
| 2026-05-07 14:24 | 36.91913 | 67.54436 | 35863 ft | 477 kts | 153° |
| 2026-05-07 14:25 | 36.86111 | 67.58493 | 35868 ft | 479 kts | 153° |
| 2026-05-07 14:25 | 36.80292 | 67.62561 | 35862 ft | 480 kts | 153° |
| 2026-05-07 14:26 | 36.74456 | 67.66645 | 35876 ft | 481 kts | 153° |
| 2026-05-07 14:26 | 36.68620 | 67.70728 | 35873 ft | 482 kts | 153° |
| 2026-05-07 14:27 | 36.62775 | 67.74819 | 35868 ft | 482 kts | 153° |
| 2026-05-07 14:27 | 36.56927 | 67.78918 | 35871 ft | 483 kts | 153° |
| 2026-05-07 14:28 | 36.51063 | 67.83028 | 35863 ft | 484 kts | 153° |
| 2026-05-07 14:28 | 36.45200 | 67.87142 | 35875 ft | 485 kts | 153° |
| 2026-05-07 14:29 | 36.39328 | 67.91260 | 35871 ft | 485 kts | 153° |
| 2026-05-07 14:29 | 36.33439 | 67.95394 | 35872 ft | 486 kts | 153° |
| 2026-05-07 14:30 | 36.27595 | 67.99496 | 35881 ft | 486 kts | 153° |
| 2026-05-07 14:30 | 36.21707 | 68.03621 | 35866 ft | 487 kts | 153° |
| 2026-05-07 14:31 | 36.15818 | 68.07763 | 35869 ft | 487 kts | 153° |
| 2026-05-07 14:31 | 36.09921 | 68.11906 | 35881 ft | 488 kts | 153° |
| 2026-05-07 14:32 | 36.04010 | 68.16056 | 35881 ft | 488 kts | 153° |
| 2026-05-07 14:32 | 35.98105 | 68.20200 | 35881 ft | 488 kts | 153° |
| 2026-05-07 14:33 | 35.92199 | 68.24344 | 35875 ft | 488 kts | 153° |
| 2026-05-07 14:33 | 35.86289 | 68.28482 | 35870 ft | 489 kts | 153° |
| 2026-05-07 14:34 | 35.80371 | 68.32627 | 35880 ft | 488 kts | 153° |
| 2026-05-07 14:34 | 35.74468 | 68.36773 | 35872 ft | 489 kts | 153° |
| 2026-05-07 14:35 | 35.68558 | 68.40921 | 35875 ft | 489 kts | 153° |
| 2026-05-07 14:35 | 35.62645 | 68.45068 | 35876 ft | 490 kts | 153° |
| 2026-05-07 14:36 | 35.56715 | 68.49226 | 35880 ft | 490 kts | 153° |
| 2026-05-07 14:36 | 35.50787 | 68.53377 | 35863 ft | 491 kts | 153° |
| 2026-05-07 14:37 | 35.44851 | 68.57527 | 35868 ft | 491 kts | 153° |
| 2026-05-07 14:37 | 35.35933 | 68.63746 | 35859 ft | 492 kts | 153° |
| 2026-05-07 14:38 | 35.29986 | 68.67902 | 35855 ft | 492 kts | 153° |
| 2026-05-07 14:38 | 35.24025 | 68.72062 | 35859 ft | 493 kts | 153° |
| 2026-05-07 14:39 | 35.18068 | 68.76222 | 35854 ft | 494 kts | 153° |
| 2026-05-07 14:39 | 35.12105 | 68.80383 | 35856 ft | 494 kts | 153° |
| 2026-05-07 14:40 | 35.06136 | 68.84551 | 35853 ft | 495 kts | 153° |
| 2026-05-07 14:40 | 35.00151 | 68.88729 | 35851 ft | 495 kts | 153° |
| 2026-05-07 14:41 | 34.94170 | 68.92905 | 35862 ft | 496 kts | 153° |
| 2026-05-07 14:41 | 34.88326 | 68.96983 | 35865 ft | 496 kts | 152° |
| 2026-05-07 14:42 | 34.82268 | 69.01205 | 35863 ft | 496 kts | 153° |
| 2026-05-07 14:42 | 34.76229 | 69.05414 | 35857 ft | 497 kts | 153° |
| 2026-05-07 14:43 | 34.70273 | 69.09564 | 35863 ft | 497 kts | 153° |
| 2026-05-07 14:43 | 34.64274 | 69.13750 | 35858 ft | 498 kts | 152° |
| 2026-05-07 14:44 | 34.58273 | 69.17945 | 35865 ft | 498 kts | 152° |
| 2026-05-07 14:44 | 34.52255 | 69.22139 | 35855 ft | 498 kts | 152° |
| 2026-05-07 14:45 | 34.46242 | 69.26326 | 35861 ft | 499 kts | 152° |
| 2026-05-07 14:45 | 34.40228 | 69.30511 | 35863 ft | 499 kts | 152° |
| 2026-05-07 14:46 | 34.34201 | 69.34698 | 35862 ft | 499 kts | 152° |
| 2026-05-07 14:46 | 34.28178 | 69.38888 | 35859 ft | 500 kts | 152° |
| 2026-05-07 14:47 | 34.22148 | 69.43072 | 35850 ft | 500 kts | 152° |
| 2026-05-07 14:47 | 34.16113 | 69.47254 | 35854 ft | 501 kts | 152° |
| 2026-05-07 14:48 | 34.10106 | 69.51420 | 35845 ft | 501 kts | 152° |
| 2026-05-07 14:48 | 34.04066 | 69.55606 | 35845 ft | 501 kts | 152° |
| 2026-05-07 14:49 | 33.98026 | 69.59792 | 35840 ft | 501 kts | 152° |
| 2026-05-07 14:49 | 33.91979 | 69.63981 | 35828 ft | 502 kts | 152° |
| 2026-05-07 14:50 | 33.85915 | 69.68182 | 35826 ft | 502 kts | 152° |
| 2026-05-07 14:50 | 33.79857 | 69.72381 | 35826 ft | 503 kts | 152° |
| 2026-05-07 14:51 | 33.73798 | 69.76586 | 35824 ft | 503 kts | 152° |
| 2026-05-07 14:51 | 33.67737 | 69.80788 | 35824 ft | 503 kts | 152° |
| 2026-05-07 14:52 | 33.61664 | 69.84992 | 35826 ft | 503 kts | 152° |
| 2026-05-07 14:52 | 33.55599 | 69.89190 | 35824 ft | 504 kts | 152° |
| 2026-05-07 14:53 | 33.49532 | 69.93392 | 35818 ft | 504 kts | 152° |
| 2026-05-07 14:53 | 33.43466 | 69.97597 | 35812 ft | 504 kts | 152° |
| 2026-05-07 14:54 | 33.37395 | 70.01808 | 35808 ft | 505 kts | 152° |
| 2026-05-07 14:54 | 33.31304 | 70.06004 | 35810 ft | 505 kts | 152° |
| 2026-05-07 14:55 | 33.25218 | 70.10180 | 35808 ft | 505 kts | 152° |
| 2026-05-07 14:55 | 33.19172 | 70.14330 | 35800 ft | 505 kts | 152° |
| 2026-05-07 14:56 | 33.13079 | 70.18516 | 35798 ft | 506 kts | 152° |
| 2026-05-07 14:56 | 33.06973 | 70.22713 | 35794 ft | 506 kts | 152° |
| 2026-05-07 14:57 | 33.00866 | 70.26899 | 35794 ft | 507 kts | 152° |
| 2026-05-07 14:57 | 32.94754 | 70.31089 | 35791 ft | 507 kts | 152° |
| 2026-05-07 14:58 | 32.88623 | 70.35295 | 35789 ft | 508 kts | 152° |
| 2026-05-07 14:58 | 32.82497 | 70.39499 | 35784 ft | 509 kts | 152° |
| 2026-05-07 14:59 | 32.76364 | 70.43713 | 35791 ft | 510 kts | 152° |
| 2026-05-07 14:59 | 32.70125 | 70.47671 | 35770 ft | 505 kts | 167° |
| 2026-05-07 15:00 | 32.66720 | 70.48319 | 35773 ft | 489 kts | 188° |
| 2026-05-07 15:00 | 32.63455 | 70.47634 | 35762 ft | 470 kts | 208° |
| 2026-05-07 15:00 | 32.60699 | 70.45752 | 35758 ft | 448 kts | 230° |
| 2026-05-07 15:00 | 32.58704 | 70.43026 | 35760 ft | 433 kts | 242° |
| 2026-05-07 15:01 | 32.55241 | 70.37151 | 35753 ft | 437 kts | 242° |
| 2026-05-07 15:01 | 32.51761 | 70.31225 | 35755 ft | 439 kts | 243° |
| 2026-05-07 15:02 | 32.47621 | 70.25768 | 35756 ft | 459 kts | 222° |
| 2026-05-07 15:02 | 32.42086 | 70.21908 | 35764 ft | 466 kts | 217° |
| 2026-05-07 15:03 | 32.36463 | 70.17985 | 35767 ft | 467 kts | 218° |
| 2026-05-07 15:03 | 32.30923 | 70.13995 | 35801 ft | 467 kts | 219° |
| 2026-05-07 15:04 | 32.25424 | 70.09982 | 35761 ft | 467 kts | 219° |
| 2026-05-07 15:04 | 32.19890 | 70.05970 | 35777 ft | 467 kts | 219° |
| 2026-05-07 15:05 | 32.14337 | 70.01976 | 35782 ft | 468 kts | 219° |
| 2026-05-07 15:05 | 32.08769 | 69.98000 | 35788 ft | 468 kts | 219° |
| 2026-05-07 15:06 | 32.03207 | 69.94019 | 35802 ft | 468 kts | 219° |
| 2026-05-07 15:06 | 31.97640 | 69.90030 | 35804 ft | 467 kts | 219° |
| 2026-05-07 15:07 | 31.92084 | 69.86054 | 35801 ft | 467 kts | 219° |
| 2026-05-07 15:07 | 31.86528 | 69.82079 | 35802 ft | 468 kts | 219° |
| 2026-05-07 15:08 | 31.80968 | 69.78116 | 35802 ft | 467 kts | 219° |
| 2026-05-07 15:08 | 31.76343 | 69.74825 | 35803 ft | 467 kts | 219° |
| 2026-05-07 15:09 | 31.70789 | 69.70876 | 35805 ft | 467 kts | 219° |
| 2026-05-07 15:09 | 31.65221 | 69.66928 | 35803 ft | 467 kts | 219° |
| 2026-05-07 15:10 | 31.59665 | 69.62995 | 35805 ft | 466 kts | 219° |
| 2026-05-07 15:10 | 31.54114 | 69.59068 | 35806 ft | 466 kts | 219° |
| 2026-05-07 15:11 | 31.48565 | 69.55145 | 35805 ft | 466 kts | 219° |
| 2026-05-07 15:11 | 31.43005 | 69.51225 | 35804 ft | 466 kts | 219° |
| 2026-05-07 15:12 | 31.37468 | 69.47295 | 35802 ft | 463 kts | 222° |
| 2026-05-07 15:12 | 31.34954 | 69.45028 | 35804 ft | 452 kts | 231° |
| 2026-05-07 15:12 | 31.32782 | 69.42412 | 35802 ft | 446 kts | 236° |
| 2026-05-07 15:13 | 31.28599 | 69.37062 | 35798 ft | 446 kts | 236° |
| 2026-05-07 15:13 | 31.24399 | 69.31719 | 35796 ft | 446 kts | 235° |
| 2026-05-07 15:14 | 31.20205 | 69.26397 | 35798 ft | 445 kts | 236° |
| 2026-05-07 15:14 | 31.16015 | 69.21077 | 35795 ft | 445 kts | 236° |
| 2026-05-07 15:15 | 31.11824 | 69.15750 | 35793 ft | 445 kts | 236° |
| 2026-05-07 15:15 | 31.07661 | 69.10475 | 35795 ft | 445 kts | 235° |
| 2026-05-07 15:16 | 31.03461 | 69.05178 | 35795 ft | 445 kts | 235° |
| 2026-05-07 15:16 | 30.99270 | 68.99882 | 35798 ft | 445 kts | 236° |
| 2026-05-07 15:17 | 30.95078 | 68.94591 | 35794 ft | 444 kts | 235° |
| 2026-05-07 15:17 | 30.90884 | 68.89298 | 35794 ft | 444 kts | 235° |
| 2026-05-07 15:18 | 30.86682 | 68.84021 | 35798 ft | 445 kts | 235° |
| 2026-05-07 15:18 | 30.82482 | 68.78750 | 35802 ft | 444 kts | 235° |
| 2026-05-07 15:19 | 30.78281 | 68.73484 | 35801 ft | 444 kts | 235° |
| 2026-05-07 15:19 | 30.74072 | 68.68214 | 35803 ft | 444 kts | 235° |
| 2026-05-07 15:20 | 30.69868 | 68.62956 | 35800 ft | 444 kts | 235° |
| 2026-05-07 15:20 | 30.65661 | 68.57707 | 35804 ft | 444 kts | 235° |
| 2026-05-07 15:21 | 30.61453 | 68.52466 | 35798 ft | 443 kts | 235° |
| 2026-05-07 15:21 | 30.57244 | 68.47221 | 35798 ft | 443 kts | 235° |
| 2026-05-07 15:22 | 30.53067 | 68.42026 | 35800 ft | 443 kts | 235° |
| 2026-05-07 15:22 | 30.48853 | 68.36806 | 35794 ft | 443 kts | 235° |
| 2026-05-07 15:23 | 30.44648 | 68.31586 | 35792 ft | 443 kts | 235° |
| 2026-05-07 15:23 | 30.40435 | 68.26354 | 35788 ft | 443 kts | 235° |
| 2026-05-07 15:24 | 30.36222 | 68.21141 | 35786 ft | 443 kts | 235° |
| 2026-05-07 15:24 | 30.32009 | 68.15933 | 35791 ft | 443 kts | 236° |
| 2026-05-07 15:25 | 30.27797 | 68.10746 | 35783 ft | 442 kts | 235° |
| 2026-05-07 15:25 | 30.23585 | 68.05564 | 35789 ft | 441 kts | 235° |
| 2026-05-07 15:26 | 30.19382 | 68.00386 | 35793 ft | 443 kts | 235° |
| 2026-05-07 15:26 | 30.15169 | 67.95214 | 35783 ft | 442 kts | 235° |
| 2026-05-07 15:27 | 30.10966 | 67.90051 | 35777 ft | 441 kts | 235° |
| 2026-05-07 15:27 | 30.06761 | 67.84866 | 35782 ft | 442 kts | 235° |
| 2026-05-07 15:28 | 30.02569 | 67.79672 | 35792 ft | 443 kts | 236° |
| 2026-05-07 15:28 | 29.98376 | 67.74472 | 35797 ft | 443 kts | 235° |
| 2026-05-07 15:29 | 29.94183 | 67.69277 | 35792 ft | 442 kts | 235° |
| 2026-05-07 15:29 | 29.90007 | 67.64120 | 35793 ft | 442 kts | 235° |
| 2026-05-07 15:30 | 29.85801 | 67.58951 | 35797 ft | 442 kts | 234° |
| 2026-05-07 15:30 | 29.81596 | 67.53789 | 35790 ft | 441 kts | 235° |
| 2026-05-07 15:31 | 29.77401 | 67.48636 | 35793 ft | 441 kts | 235° |
| 2026-05-07 15:31 | 29.73199 | 67.43474 | 35795 ft | 441 kts | 235° |
| 2026-05-07 15:32 | 29.69010 | 67.38325 | 35795 ft | 441 kts | 235° |
| 2026-05-07 15:32 | 29.64821 | 67.33184 | 35794 ft | 440 kts | 235° |
| 2026-05-07 15:33 | 29.60631 | 67.28036 | 35792 ft | 440 kts | 235° |
| 2026-05-07 15:33 | 29.56457 | 67.22910 | 35797 ft | 439 kts | 235° |
| 2026-05-07 15:34 | 29.52284 | 67.17793 | 35794 ft | 439 kts | 235° |
| 2026-05-07 15:34 | 29.48108 | 67.12680 | 35795 ft | 439 kts | 235° |
| 2026-05-07 15:35 | 29.43922 | 67.07571 | 35798 ft | 439 kts | 235° |
| 2026-05-07 15:35 | 29.39770 | 67.02521 | 35796 ft | 438 kts | 235° |
| 2026-05-07 15:36 | 29.35595 | 66.97445 | 35796 ft | 437 kts | 235° |
| 2026-05-07 15:36 | 29.31434 | 66.92369 | 35793 ft | 437 kts | 235° |
| 2026-05-07 15:37 | 29.27267 | 66.87290 | 35794 ft | 437 kts | 235° |
| 2026-05-07 15:37 | 29.23097 | 66.82235 | 35799 ft | 436 kts | 235° |
| 2026-05-07 15:38 | 29.18931 | 66.77188 | 35795 ft | 436 kts | 235° |
| 2026-05-07 15:38 | 29.14764 | 66.72144 | 35794 ft | 436 kts | 235° |
| 2026-05-07 15:39 | 29.10588 | 66.67093 | 35796 ft | 436 kts | 235° |
| 2026-05-07 15:39 | 29.06419 | 66.62056 | 35795 ft | 436 kts | 235° |
| 2026-05-07 15:40 | 29.02249 | 66.57025 | 35796 ft | 436 kts | 235° |
| 2026-05-07 15:40 | 28.98090 | 66.51993 | 35799 ft | 436 kts | 235° |
| 2026-05-07 15:41 | 28.93927 | 66.46955 | 35796 ft | 435 kts | 235° |
| 2026-05-07 15:41 | 28.89768 | 66.41935 | 35799 ft | 435 kts | 235° |
| 2026-05-07 15:42 | 28.85609 | 66.36915 | 35800 ft | 435 kts | 234° |
| 2026-05-07 15:42 | 28.81450 | 66.31902 | 35802 ft | 435 kts | 234° |
| 2026-05-07 15:43 | 28.77287 | 66.26891 | 35805 ft | 435 kts | 234° |
| 2026-05-07 15:43 | 28.73120 | 66.21898 | 35804 ft | 435 kts | 234° |
| 2026-05-07 15:44 | 28.68954 | 66.16907 | 35825 ft | 435 kts | 234° |
| 2026-05-07 15:44 | 28.64789 | 66.11912 | 35842 ft | 435 kts | 234° |
| 2026-05-07 15:45 | 28.60615 | 66.06913 | 35841 ft | 435 kts | 234° |
| 2026-05-07 15:45 | 28.56440 | 66.01928 | 35858 ft | 435 kts | 234° |
| 2026-05-07 15:46 | 28.50190 | 65.94454 | 35865 ft | 434 kts | 234° |
| 2026-05-07 15:47 | 28.46032 | 65.89488 | 35867 ft | 434 kts | 234° |
| 2026-05-07 15:47 | 28.41868 | 65.84531 | 35853 ft | 434 kts | 234° |
| 2026-05-07 15:48 | 28.37696 | 65.79569 | 35857 ft | 434 kts | 234° |
| 2026-05-07 15:48 | 28.33526 | 65.74623 | 35860 ft | 434 kts | 234° |
| 2026-05-07 15:49 | 28.29357 | 65.69675 | 35860 ft | 434 kts | 234° |
| 2026-05-07 15:49 | 28.25185 | 65.64733 | 35860 ft | 434 kts | 234° |
| 2026-05-07 15:50 | 28.21006 | 65.59791 | 35873 ft | 434 kts | 234° |
| 2026-05-07 15:50 | 28.16832 | 65.54857 | 35863 ft | 434 kts | 234° |
| 2026-05-07 15:51 | 28.12657 | 65.49932 | 35872 ft | 433 kts | 234° |
| 2026-05-07 15:51 | 28.08483 | 65.45009 | 35874 ft | 433 kts | 234° |
| 2026-05-07 15:52 | 28.04303 | 65.40086 | 35864 ft | 433 kts | 234° |
| 2026-05-07 15:52 | 28.00159 | 65.35208 | 35871 ft | 433 kts | 234° |
| 2026-05-07 15:53 | 27.95987 | 65.30298 | 35868 ft | 433 kts | 233° |
| 2026-05-07 15:53 | 27.91805 | 65.25390 | 35858 ft | 434 kts | 233° |
| 2026-05-07 15:54 | 27.87616 | 65.20480 | 35873 ft | 434 kts | 233° |
| 2026-05-07 15:54 | 27.83418 | 65.15562 | 35869 ft | 434 kts | 233° |
| 2026-05-07 15:55 | 27.79220 | 65.10655 | 35873 ft | 434 kts | 233° |
| 2026-05-07 15:55 | 27.75022 | 65.05752 | 35875 ft | 434 kts | 233° |
| 2026-05-07 15:56 | 27.70823 | 65.00849 | 35862 ft | 435 kts | 233° |
| 2026-05-07 15:56 | 27.66612 | 64.95944 | 35866 ft | 434 kts | 233° |
| 2026-05-07 15:57 | 27.62410 | 64.91052 | 35867 ft | 434 kts | 233° |
| 2026-05-07 15:57 | 27.58205 | 64.86164 | 35870 ft | 435 kts | 233° |
| 2026-05-07 15:58 | 27.54021 | 64.81309 | 35858 ft | 435 kts | 232° |
| 2026-05-07 15:58 | 27.49812 | 64.76428 | 35872 ft | 434 kts | 232° |
| 2026-05-07 15:59 | 27.45601 | 64.71552 | 35866 ft | 434 kts | 232° |
| 2026-05-07 15:59 | 27.42069 | 64.67469 | 35870 ft | 434 kts | 232° |
| 2026-05-07 16:00 | 27.37856 | 64.62601 | 35862 ft | 434 kts | 232° |
| 2026-05-07 16:00 | 27.33633 | 64.57723 | 35864 ft | 435 kts | 232° |
| 2026-05-07 16:01 | 27.29442 | 64.52892 | 35870 ft | 434 kts | 232° |
| 2026-05-07 16:01 | 27.25226 | 64.48035 | 35875 ft | 434 kts | 232° |
| 2026-05-07 16:02 | 27.21015 | 64.43177 | 35866 ft | 434 kts | 232° |
| 2026-05-07 16:02 | 27.16800 | 64.38342 | 35797 ft | 432 kts | 232° |
| 2026-05-07 16:03 | 27.12593 | 64.33516 | 35780 ft | 433 kts | 232° |
| 2026-05-07 16:03 | 27.08376 | 64.28672 | 35778 ft | 434 kts | 232° |
| 2026-05-07 16:04 | 27.04146 | 64.23829 | 35781 ft | 435 kts | 232° |
| 2026-05-07 16:04 | 26.99905 | 64.18982 | 35784 ft | 436 kts | 232° |
| 2026-05-07 16:05 | 26.95655 | 64.14133 | 35790 ft | 436 kts | 231° |
| 2026-05-07 16:05 | 26.91388 | 64.09278 | 35799 ft | 437 kts | 231° |
| 2026-05-07 16:06 | 26.87102 | 64.04444 | 35813 ft | 438 kts | 231° |
| 2026-05-07 16:06 | 26.82806 | 63.99609 | 35820 ft | 438 kts | 231° |
| 2026-05-07 16:07 | 26.78514 | 63.94768 | 35826 ft | 438 kts | 231° |
| 2026-05-07 16:07 | 26.74214 | 63.89928 | 35827 ft | 438 kts | 230° |
| 2026-05-07 16:08 | 26.69922 | 63.85099 | 35828 ft | 438 kts | 230° |
| 2026-05-07 16:08 | 26.65624 | 63.80279 | 35829 ft | 438 kts | 230° |
| 2026-05-07 16:09 | 26.61318 | 63.75448 | 35826 ft | 438 kts | 230° |
| 2026-05-07 16:09 | 26.57013 | 63.70624 | 35825 ft | 439 kts | 230° |
| 2026-05-07 16:10 | 26.52707 | 63.65792 | 35830 ft | 439 kts | 230° |
| 2026-05-07 16:10 | 26.48393 | 63.60964 | 35830 ft | 439 kts | 230° |
| 2026-05-07 16:11 | 26.44080 | 63.56139 | 35830 ft | 439 kts | 230° |
| 2026-05-07 16:11 | 26.39780 | 63.51346 | 35829 ft | 439 kts | 230° |
| 2026-05-07 16:12 | 26.35452 | 63.46536 | 35831 ft | 439 kts | 230° |
| 2026-05-07 16:12 | 26.31127 | 63.41724 | 35827 ft | 439 kts | 230° |
| 2026-05-07 16:13 | 26.26803 | 63.36913 | 35832 ft | 439 kts | 230° |
| 2026-05-07 16:13 | 26.22470 | 63.32100 | 35832 ft | 439 kts | 230° |
| 2026-05-07 16:14 | 26.18144 | 63.27301 | 35832 ft | 439 kts | 230° |
| 2026-05-07 16:14 | 26.13813 | 63.22508 | 35832 ft | 439 kts | 230° |
| 2026-05-07 16:15 | 26.09483 | 63.17718 | 35832 ft | 439 kts | 230° |
| 2026-05-07 16:15 | 26.05156 | 63.12925 | 35833 ft | 439 kts | 230° |
| 2026-05-07 16:16 | 26.00819 | 63.08136 | 35833 ft | 439 kts | 230° |
| 2026-05-07 16:16 | 25.96492 | 63.03355 | 35829 ft | 439 kts | 229° |
| 2026-05-07 16:17 | 25.92168 | 62.98561 | 35820 ft | 440 kts | 229° |
| 2026-05-07 16:17 | 25.87835 | 62.93759 | 35819 ft | 441 kts | 229° |
| 2026-05-07 16:18 | 25.83485 | 62.88946 | 35823 ft | 441 kts | 229° |
| 2026-05-07 16:18 | 25.79133 | 62.84152 | 35828 ft | 441 kts | 229° |
| 2026-05-07 16:19 | 25.74782 | 62.79367 | 35828 ft | 441 kts | 229° |
| 2026-05-07 16:19 | 25.70434 | 62.74583 | 35831 ft | 441 kts | 229° |
| 2026-05-07 16:20 | 25.66105 | 62.69826 | 35830 ft | 441 kts | 229° |
| 2026-05-07 16:20 | 25.61757 | 62.65046 | 35833 ft | 440 kts | 229° |
| 2026-05-07 16:21 | 25.57407 | 62.60272 | 35831 ft | 440 kts | 229° |
| 2026-05-07 16:21 | 25.53058 | 62.55505 | 35830 ft | 440 kts | 229° |
| 2026-05-07 16:22 | 25.48707 | 62.50740 | 35831 ft | 440 kts | 229° |
| 2026-05-07 16:22 | 25.44345 | 62.45968 | 35831 ft | 441 kts | 229° |
| 2026-05-07 16:23 | 25.39985 | 62.41205 | 35831 ft | 441 kts | 229° |
| 2026-05-07 16:23 | 25.35622 | 62.36446 | 35831 ft | 441 kts | 229° |
| 2026-05-07 16:24 | 25.31250 | 62.31681 | 35830 ft | 441 kts | 229° |
| 2026-05-07 16:24 | 25.26884 | 62.26931 | 35826 ft | 441 kts | 229° |
| 2026-05-07 16:25 | 25.22521 | 62.22178 | 35828 ft | 441 kts | 228° |
| 2026-05-07 16:25 | 25.18153 | 62.17428 | 35829 ft | 441 kts | 228° |
| 2026-05-07 16:26 | 25.13774 | 62.12680 | 35828 ft | 441 kts | 228° |
| 2026-05-07 16:26 | 25.09389 | 62.07922 | 35826 ft | 442 kts | 228° |
| 2026-05-07 16:27 | 25.05010 | 62.03168 | 35827 ft | 442 kts | 228° |
| 2026-05-07 16:27 | 25.00621 | 61.98424 | 35825 ft | 442 kts | 228° |
| 2026-05-07 16:28 | 24.96229 | 61.93683 | 35826 ft | 442 kts | 228° |
| 2026-05-07 16:28 | 24.91831 | 61.88932 | 35824 ft | 442 kts | 228° |
| 2026-05-07 16:29 | 24.87436 | 61.84193 | 35827 ft | 442 kts | 228° |
| 2026-05-07 16:29 | 24.83037 | 61.79451 | 35824 ft | 443 kts | 227° |
| 2026-05-07 16:30 | 24.78660 | 61.74742 | 35824 ft | 443 kts | 227° |
| 2026-05-07 16:30 | 24.74248 | 61.70003 | 35824 ft | 444 kts | 227° |
| 2026-05-07 16:31 | 24.69824 | 61.65254 | 35826 ft | 444 kts | 227° |
| 2026-05-07 16:31 | 24.65403 | 61.60508 | 35823 ft | 444 kts | 227° |
| 2026-05-07 16:32 | 24.60980 | 61.55768 | 35820 ft | 444 kts | 227° |
| 2026-05-07 16:32 | 24.56555 | 61.51026 | 35818 ft | 445 kts | 227° |
| 2026-05-07 16:33 | 24.52118 | 61.46273 | 35821 ft | 445 kts | 227° |
| 2026-05-07 16:33 | 24.47686 | 61.41531 | 35822 ft | 445 kts | 227° |
| 2026-05-07 16:34 | 24.43247 | 61.36794 | 35820 ft | 445 kts | 227° |
| 2026-05-07 16:34 | 24.39561 | 61.31432 | 35818 ft | 438 kts | 246° |
| 2026-05-07 16:35 | 24.37388 | 61.25237 | 35821 ft | 435 kts | 252° |
| 2026-05-07 16:35 | 24.35366 | 61.18984 | 35820 ft | 435 kts | 252° |
| 2026-05-07 16:36 | 24.33333 | 61.12732 | 35817 ft | 436 kts | 252° |
| 2026-05-07 16:36 | 24.31294 | 61.06480 | 35815 ft | 436 kts | 252° |
| 2026-05-07 16:37 | 24.29260 | 61.00217 | 35813 ft | 436 kts | 252° |
| 2026-05-07 16:37 | 24.27231 | 60.93967 | 35813 ft | 435 kts | 252° |
| 2026-05-07 16:38 | 24.25199 | 60.87728 | 35813 ft | 435 kts | 252° |
| 2026-05-07 16:38 | 24.23157 | 60.81483 | 35815 ft | 435 kts | 252° |
| 2026-05-07 16:39 | 24.21128 | 60.75296 | 35820 ft | 435 kts | 252° |
| 2026-05-07 16:39 | 24.19068 | 60.69022 | 35827 ft | 435 kts | 252° |
| 2026-05-07 16:40 | 24.17021 | 60.62786 | 35820 ft | 435 kts | 252° |
| 2026-05-07 16:40 | 24.14971 | 60.56552 | 35812 ft | 435 kts | 252° |
| 2026-05-07 16:41 | 24.12930 | 60.50351 | 35802 ft | 435 kts | 252° |
| 2026-05-07 16:41 | 24.10876 | 60.44120 | 35799 ft | 435 kts | 252° |
| 2026-05-07 16:42 | 24.08808 | 60.37895 | 35792 ft | 436 kts | 252° |
| 2026-05-07 16:42 | 24.06741 | 60.31667 | 35791 ft | 436 kts | 252° |
| 2026-05-07 16:43 | 24.04667 | 60.25428 | 35791 ft | 436 kts | 252° |
| 2026-05-07 16:43 | 24.02591 | 60.19200 | 35792 ft | 436 kts | 252° |
| 2026-05-07 16:44 | 24.00524 | 60.12969 | 35794 ft | 436 kts | 252° |
| 2026-05-07 16:44 | 23.98456 | 60.06725 | 35789 ft | 436 kts | 252° |
| 2026-05-07 16:45 | 23.96378 | 60.00495 | 35792 ft | 436 kts | 252° |
| 2026-05-07 16:45 | 23.94297 | 59.94267 | 35787 ft | 436 kts | 252° |
| 2026-05-07 16:46 | 23.92212 | 59.88037 | 35784 ft | 437 kts | 251° |
| 2026-05-07 16:46 | 23.90119 | 59.81802 | 35782 ft | 436 kts | 251° |
| 2026-05-07 16:47 | 23.88043 | 59.75622 | 35784 ft | 436 kts | 251° |
| 2026-05-07 16:47 | 23.85957 | 59.69399 | 35785 ft | 436 kts | 251° |
| 2026-05-07 16:48 | 23.83869 | 59.63177 | 35778 ft | 436 kts | 251° |
| 2026-05-07 16:48 | 23.82111 | 59.57960 | 35784 ft | 437 kts | 251° |
| 2026-05-07 16:49 | 23.80011 | 59.51740 | 35778 ft | 437 kts | 251° |
| 2026-05-07 16:49 | 23.77856 | 59.45533 | 35783 ft | 438 kts | 250° |
| 2026-05-07 16:50 | 23.75606 | 59.39353 | 35773 ft | 438 kts | 250° |
| 2026-05-07 16:50 | 23.73354 | 59.33183 | 35770 ft | 438 kts | 250° |
| 2026-05-07 16:51 | 23.71121 | 59.27002 | 35772 ft | 438 kts | 250° |
| 2026-05-07 16:51 | 23.68892 | 59.20816 | 35770 ft | 438 kts | 250° |
| 2026-05-07 16:52 | 23.66656 | 59.14623 | 35770 ft | 438 kts | 250° |
| 2026-05-07 16:52 | 23.64419 | 59.08447 | 35768 ft | 438 kts | 250° |
| 2026-05-07 16:53 | 23.62174 | 59.02272 | 35770 ft | 438 kts | 250° |
| 2026-05-07 16:53 | 23.59928 | 58.96095 | 35766 ft | 439 kts | 249° |
| 2026-05-07 16:54 | 23.57684 | 58.89951 | 35765 ft | 439 kts | 249° |
| 2026-05-07 16:54 | 23.55428 | 58.83780 | 35773 ft | 439 kts | 250° |
| 2026-05-07 16:55 | 23.53181 | 58.77602 | 35772 ft | 439 kts | 250° |
| 2026-05-07 16:55 | 23.50933 | 58.71426 | 35772 ft | 439 kts | 249° |
| 2026-05-07 16:56 | 23.48664 | 58.65247 | 35770 ft | 439 kts | 249° |
| 2026-05-07 16:56 | 23.45264 | 58.55998 | 35770 ft | 439 kts | 249° |
| 2026-05-07 16:57 | 23.42994 | 58.49822 | 35771 ft | 439 kts | 249° |
| 2026-05-07 16:57 | 23.40729 | 58.43661 | 35783 ft | 438 kts | 249° |
| 2026-05-07 16:58 | 23.38420 | 58.37521 | 35778 ft | 438 kts | 249° |
| 2026-05-07 16:58 | 23.36085 | 58.31428 | 35764 ft | 438 kts | 249° |
| 2026-05-07 16:59 | 23.33739 | 58.25308 | 35766 ft | 438 kts | 249° |
| 2026-05-07 16:59 | 23.31398 | 58.19189 | 35772 ft | 438 kts | 249° |
| 2026-05-07 17:00 | 23.29045 | 58.13031 | 35767 ft | 438 kts | 249° |
| 2026-05-07 17:00 | 23.26704 | 58.06917 | 35773 ft | 438 kts | 249° |
| 2026-05-07 17:01 | 23.24368 | 58.00835 | 35768 ft | 438 kts | 249° |
| 2026-05-07 17:01 | 23.22175 | 57.94653 | 35770 ft | 439 kts | 251° |
| 2026-05-07 17:02 | 23.20093 | 57.88426 | 35769 ft | 438 kts | 251° |
| 2026-05-07 17:02 | 23.17995 | 57.82207 | 35769 ft | 438 kts | 250° |
| 2026-05-07 17:03 | 23.15857 | 57.75989 | 35767 ft | 439 kts | 250° |
| 2026-05-07 17:03 | 23.13701 | 57.69790 | 35765 ft | 439 kts | 250° |
| 2026-05-07 17:04 | 23.11551 | 57.63587 | 35767 ft | 439 kts | 250° |
| 2026-05-07 17:04 | 23.09403 | 57.57382 | 35769 ft | 439 kts | 250° |
| 2026-05-07 17:05 | 23.07266 | 57.51207 | 35785 ft | 439 kts | 250° |
| 2026-05-07 17:05 | 23.05106 | 57.45004 | 35789 ft | 439 kts | 250° |
| 2026-05-07 17:06 | 23.02939 | 57.38799 | 35792 ft | 440 kts | 250° |
| 2026-05-07 17:06 | 23.00779 | 57.32588 | 35801 ft | 440 kts | 250° |
| 2026-05-07 17:07 | 22.98156 | 57.26577 | 35801 ft | 441 kts | 244° |
| 2026-05-07 17:07 | 22.95337 | 57.20671 | 35806 ft | 441 kts | 244° |
| 2026-05-07 17:08 | 22.92517 | 57.14766 | 35809 ft | 441 kts | 244° |
| 2026-05-07 17:08 | 22.89699 | 57.08861 | 35809 ft | 441 kts | 244° |
| 2026-05-07 17:09 | 22.86874 | 57.02950 | 35808 ft | 441 kts | 243° |
| 2026-05-07 17:09 | 22.84041 | 56.97057 | 35806 ft | 441 kts | 243° |
| 2026-05-07 17:10 | 22.81207 | 56.91160 | 35805 ft | 441 kts | 243° |
| 2026-05-07 17:10 | 22.78379 | 56.85256 | 35804 ft | 442 kts | 243° |
| 2026-05-07 17:11 | 22.75539 | 56.79346 | 35806 ft | 442 kts | 243° |
| 2026-05-07 17:11 | 22.72698 | 56.73449 | 35807 ft | 442 kts | 243° |
| 2026-05-07 17:12 | 22.69863 | 56.67549 | 35806 ft | 442 kts | 243° |
| 2026-05-07 17:12 | 22.67022 | 56.61641 | 35812 ft | 442 kts | 243° |
| 2026-05-07 17:13 | 22.64175 | 56.55750 | 35825 ft | 441 kts | 243° |
| 2026-05-07 17:13 | 22.61332 | 56.49861 | 35839 ft | 442 kts | 243° |
| 2026-05-07 17:14 | 22.58482 | 56.43968 | 35847 ft | 442 kts | 243° |
| 2026-05-07 17:14 | 22.55622 | 56.38078 | 35850 ft | 442 kts | 243° |
| 2026-05-07 17:15 | 22.52760 | 56.32173 | 35849 ft | 443 kts | 243° |
| 2026-05-07 17:15 | 22.49899 | 56.26269 | 35857 ft | 443 kts | 243° |
| 2026-05-07 17:16 | 22.47022 | 56.20373 | 35866 ft | 443 kts | 243° |
| 2026-05-07 17:16 | 22.44145 | 56.14464 | 35862 ft | 444 kts | 243° |
| 2026-05-07 17:17 | 22.41300 | 56.08601 | 35867 ft | 444 kts | 243° |
| 2026-05-07 17:17 | 22.38431 | 56.02699 | 35860 ft | 444 kts | 243° |
| 2026-05-07 17:18 | 22.35552 | 55.96801 | 35862 ft | 444 kts | 243° |
| 2026-05-07 17:18 | 22.32664 | 55.90911 | 35869 ft | 444 kts | 243° |
| 2026-05-07 17:19 | 22.29771 | 55.85013 | 35869 ft | 444 kts | 243° |
| 2026-05-07 17:19 | 22.26871 | 55.79134 | 35874 ft | 444 kts | 243° |
| 2026-05-07 17:20 | 22.23974 | 55.73252 | 35864 ft | 444 kts | 243° |
| 2026-05-07 17:20 | 22.21089 | 55.67365 | 35863 ft | 444 kts | 243° |
| 2026-05-07 17:21 | 22.18202 | 55.61471 | 35881 ft | 444 kts | 243° |
| 2026-05-07 17:21 | 22.15310 | 55.55597 | 35884 ft | 443 kts | 243° |
| 2026-05-07 17:22 | 22.12593 | 55.49642 | 35883 ft | 443 kts | 245° |
| 2026-05-07 17:22 | 22.10020 | 55.43615 | 35883 ft | 443 kts | 246° |
| 2026-05-07 17:23 | 22.07424 | 55.37585 | 35884 ft | 443 kts | 245° |
| 2026-05-07 17:23 | 22.04778 | 55.31593 | 35884 ft | 443 kts | 245° |
| 2026-05-07 17:24 | 22.02114 | 55.25613 | 35884 ft | 443 kts | 245° |
| 2026-05-07 17:24 | 21.99458 | 55.19631 | 35884 ft | 443 kts | 245° |
| 2026-05-07 17:25 | 21.96818 | 55.13676 | 35868 ft | 443 kts | 245° |
| 2026-05-07 17:25 | 21.94161 | 55.07679 | 35866 ft | 444 kts | 245° |
| 2026-05-07 17:26 | 21.91494 | 55.01679 | 35870 ft | 445 kts | 245° |
| 2026-05-07 17:26 | 21.88824 | 54.95675 | 35880 ft | 445 kts | 245° |
| 2026-05-07 17:27 | 21.86141 | 54.89663 | 35880 ft | 445 kts | 245° |
| 2026-05-07 17:27 | 21.83458 | 54.83662 | 35882 ft | 445 kts | 245° |
| 2026-05-07 17:28 | 21.80778 | 54.77659 | 35882 ft | 445 kts | 245° |
| 2026-05-07 17:28 | 21.78104 | 54.71656 | 35880 ft | 445 kts | 245° |
| 2026-05-07 17:29 | 21.75416 | 54.65650 | 35871 ft | 445 kts | 244° |
| 2026-05-07 17:29 | 21.72720 | 54.59661 | 35868 ft | 445 kts | 244° |
| 2026-05-07 17:30 | 21.70032 | 54.53676 | 35857 ft | 444 kts | 244° |
| 2026-05-07 17:30 | 21.67343 | 54.47696 | 35857 ft | 444 kts | 244° |
| 2026-05-07 17:31 | 21.64658 | 54.41705 | 35860 ft | 444 kts | 244° |
| 2026-05-07 17:31 | 21.62428 | 54.36743 | 35863 ft | 444 kts | 244° |
| 2026-05-07 17:32 | 21.59458 | 54.30151 | 35852 ft | 443 kts | 244° |
| 2026-05-07 17:32 | 21.57220 | 54.25195 | 35849 ft | 443 kts | 244° |
| 2026-05-07 17:33 | 21.54065 | 54.18230 | 35856 ft | 443 kts | 244° |
| 2026-05-07 17:33 | 21.51371 | 54.12275 | 35845 ft | 443 kts | 244° |
| 2026-05-07 17:34 | 21.48679 | 54.06323 | 35843 ft | 444 kts | 244° |
| 2026-05-07 17:34 | 21.47329 | 54.03339 | 35599 ft | 444 kts | 244° |
| 2026-05-07 17:34 | 21.45983 | 54.00364 | 35346 ft | 443 kts | 244° |
| 2026-05-07 17:35 | 21.44651 | 53.97425 | 35102 ft | 443 kts | 244° |
| 2026-05-07 17:35 | 21.43280 | 53.94415 | 34850 ft | 443 kts | 244° |
| 2026-05-07 17:35 | 21.41940 | 53.91477 | 34602 ft | 444 kts | 244° |
| 2026-05-07 17:35 | 21.40584 | 53.88502 | 34352 ft | 445 kts | 244° |
| 2026-05-07 17:36 | 21.39226 | 53.85518 | 34103 ft | 444 kts | 244° |
| 2026-05-07 17:36 | 21.37870 | 53.82539 | 33854 ft | 445 kts | 244° |
| 2026-05-07 17:36 | 21.36510 | 53.79553 | 33604 ft | 445 kts | 244° |
| 2026-05-07 17:36 | 21.35151 | 53.76571 | 33354 ft | 446 kts | 244° |
| 2026-05-07 17:37 | 21.33786 | 53.73578 | 33104 ft | 447 kts | 244° |
| 2026-05-07 17:37 | 21.32418 | 53.70587 | 32876 ft | 447 kts | 244° |
| 2026-05-07 17:37 | 21.29668 | 53.64592 | 32843 ft | 449 kts | 244° |
| 2026-05-07 17:38 | 21.27381 | 53.59600 | 32845 ft | 449 kts | 244° |
| 2026-05-07 17:38 | 21.24630 | 53.53588 | 32840 ft | 450 kts | 244° |
| 2026-05-07 17:39 | 21.21887 | 53.47569 | 32842 ft | 450 kts | 244° |
| 2026-05-07 17:39 | 21.19132 | 53.41548 | 32845 ft | 450 kts | 244° |
| 2026-05-07 17:40 | 21.16352 | 53.35490 | 32939 ft | 459 kts | 244° |
| 2026-05-07 17:40 | 21.14926 | 53.32417 | 33114 ft | 461 kts | 243° |
| 2026-05-07 17:40 | 21.13473 | 53.29356 | 33331 ft | 462 kts | 243° |
| 2026-05-07 17:41 | 21.11993 | 53.26301 | 33562 ft | 462 kts | 243° |
| 2026-05-07 17:41 | 21.10498 | 53.23265 | 33805 ft | 461 kts | 242° |
| 2026-05-07 17:41 | 21.08990 | 53.20230 | 34063 ft | 461 kts | 242° |
| 2026-05-07 17:41 | 21.07479 | 53.17214 | 34330 ft | 460 kts | 242° |
| 2026-05-07 17:42 | 21.05959 | 53.14206 | 34611 ft | 458 kts | 242° |
| 2026-05-07 17:42 | 21.04450 | 53.11213 | 34902 ft | 456 kts | 242° |
| 2026-05-07 17:42 | 21.02961 | 53.08218 | 35198 ft | 454 kts | 243° |
| 2026-05-07 17:42 | 21.01575 | 53.05191 | 35431 ft | 454 kts | 247° |
| 2026-05-07 17:43 | 21.00438 | 53.02036 | 35547 ft | 456 kts | 251° |
| 2026-05-07 17:43 | 20.99510 | 52.98831 | 36158 ft | 445 kts | 257° |
| 2026-05-07 17:43 | 20.99064 | 52.95514 | 35867 ft | 458 kts | 265° |
| 2026-05-07 17:43 | 20.98870 | 52.92075 | 35729 ft | 465 kts | 266° |
| 2026-05-07 17:44 | 20.98925 | 52.85126 | 35877 ft | 469 kts | 273° |
| 2026-05-07 17:44 | 20.99216 | 52.81647 | 36006 ft | 469 kts | 276° |
| 2026-05-07 17:44 | 20.99675 | 52.78199 | 36154 ft | 468 kts | 279° |
| 2026-05-07 17:45 | 21.00275 | 52.74756 | 35867 ft | 477 kts | 279° |
| 2026-05-07 17:45 | 21.00839 | 52.71250 | 35608 ft | 484 kts | 278° |
| 2026-05-07 17:45 | 21.01367 | 52.67887 | 36265 ft | 471 kts | 278° |
| 2026-05-07 17:45 | 21.01909 | 52.64387 | 36465 ft | 469 kts | 278° |
| 2026-05-07 17:46 | 21.02437 | 52.60993 | 36637 ft | 468 kts | 278° |
| 2026-05-07 17:46 | 21.02971 | 52.57563 | 36836 ft | 466 kts | 278° |
| 2026-05-07 17:46 | 21.03427 | 52.54158 | 37077 ft | 456 kts | 271° |
| 2026-05-07 17:46 | 21.03112 | 52.50841 | 36936 ft | 445 kts | 254° |
| 2026-05-07 17:47 | 21.02233 | 52.47687 | 36691 ft | 439 kts | 253° |
| 2026-05-07 17:47 | 21.01351 | 52.44573 | 36439 ft | 437 kts | 253° |
| 2026-05-07 17:47 | 21.00506 | 52.41450 | 36182 ft | 437 kts | 258° |
| 2026-05-07 17:47 | 21.00235 | 52.38179 | 35935 ft | 438 kts | 269° |
| 2026-05-07 17:48 | 21.00238 | 52.34942 | 35613 ft | 442 kts | 269° |
| 2026-05-07 17:48 | 21.00243 | 52.31603 | 35284 ft | 444 kts | 269° |
| 2026-05-07 17:48 | 21.00250 | 52.28285 | 34959 ft | 446 kts | 269° |
| 2026-05-07 17:48 | 21.00258 | 52.24965 | 34635 ft | 447 kts | 269° |
| 2026-05-07 17:49 | 21.00263 | 52.21633 | 34309 ft | 448 kts | 269° |
| 2026-05-07 17:49 | 21.00271 | 52.18305 | 33980 ft | 448 kts | 269° |
| 2026-05-07 17:49 | 21.00278 | 52.14972 | 33654 ft | 449 kts | 269° |
| 2026-05-07 17:49 | 21.00281 | 52.11628 | 33328 ft | 449 kts | 269° |
| 2026-05-07 17:50 | 21.00281 | 52.08275 | 33004 ft | 450 kts | 269° |
| 2026-05-07 17:50 | 21.00280 | 52.04929 | 32808 ft | 450 kts | 269° |
| 2026-05-07 17:50 | 21.00277 | 51.98219 | 32849 ft | 451 kts | 269° |
| 2026-05-07 17:51 | 21.00278 | 51.91498 | 32849 ft | 452 kts | 269° |
| 2026-05-07 17:51 | 21.00269 | 51.84772 | 32850 ft | 451 kts | 269° |
| 2026-05-07 17:52 | 21.00260 | 51.78063 | 32849 ft | 450 kts | 269° |
| 2026-05-07 17:52 | 21.00259 | 51.71350 | 32860 ft | 452 kts | 269° |
| 2026-05-07 17:53 | 21.00250 | 51.64632 | 32859 ft | 451 kts | 269° |
| 2026-05-07 17:53 | 21.00229 | 51.57915 | 32862 ft | 451 kts | 269° |
| 2026-05-07 17:54 | 21.00205 | 51.51193 | 32869 ft | 451 kts | 269° |
| 2026-05-07 17:54 | 21.00190 | 51.44486 | 32870 ft | 451 kts | 269° |
| 2026-05-07 17:55 | 21.00169 | 51.37787 | 32868 ft | 451 kts | 269° |
| 2026-05-07 17:55 | 21.00141 | 51.31082 | 32867 ft | 451 kts | 269° |
| 2026-05-07 17:56 | 21.00111 | 51.24379 | 32869 ft | 450 kts | 269° |
| 2026-05-07 17:56 | 21.00084 | 51.17677 | 32873 ft | 450 kts | 269° |
| 2026-05-07 17:57 | 21.00114 | 51.12107 | 32871 ft | 451 kts | 275° |
| 2026-05-07 17:57 | 21.01299 | 51.07821 | 32869 ft | 453 kts | 298° |
| 2026-05-07 17:57 | 21.03181 | 51.05126 | 32868 ft | 456 kts | 315° |
| 2026-05-07 17:58 | 21.05761 | 51.03149 | 32862 ft | 459 kts | 332° |
| 2026-05-07 17:58 | 21.08801 | 51.02095 | 32860 ft | 464 kts | 350° |
| 2026-05-07 17:58 | 21.12034 | 51.02065 | 32858 ft | 468 kts | 6° |
| 2026-05-07 17:58 | 21.15253 | 51.02587 | 32860 ft | 469 kts | 7° |
| 2026-05-07 17:59 | 21.21708 | 51.03734 | 32856 ft | 471 kts | 8° |
| 2026-05-07 17:59 | 21.28136 | 51.04902 | 32863 ft | 472 kts | 7° |
| 2026-05-07 18:00 | 21.34620 | 51.06041 | 32861 ft | 472 kts | 7° |
| 2026-05-07 18:00 | 21.41110 | 51.07166 | 32864 ft | 472 kts | 7° |
| 2026-05-07 18:01 | 21.47598 | 51.08299 | 32867 ft | 472 kts | 7° |
| 2026-05-07 18:01 | 21.54088 | 51.09442 | 32870 ft | 473 kts | 7° |
| 2026-05-07 18:02 | 21.63827 | 51.11139 | 32875 ft | 473 kts | 7° |
| 2026-05-07 18:03 | 21.70322 | 51.12282 | 32876 ft | 473 kts | 7° |
| 2026-05-07 18:03 | 21.76813 | 51.13422 | 32880 ft | 473 kts | 7° |
| 2026-05-07 18:04 | 21.83304 | 51.14572 | 32881 ft | 473 kts | 7° |
| 2026-05-07 18:04 | 21.89799 | 51.15717 | 32884 ft | 473 kts | 7° |
| 2026-05-07 18:05 | 21.96295 | 51.16861 | 32883 ft | 473 kts | 7° |
| 2026-05-07 18:05 | 22.02789 | 51.18002 | 32884 ft | 473 kts | 7° |
| 2026-05-07 18:06 | 22.09292 | 51.19150 | 32877 ft | 474 kts | 7° |
| 2026-05-07 18:06 | 22.15805 | 51.20304 | 32875 ft | 475 kts | 7° |
| 2026-05-07 18:07 | 22.22324 | 51.21465 | 32877 ft | 475 kts | 7° |
| 2026-05-07 18:07 | 22.28846 | 51.22619 | 32879 ft | 475 kts | 7° |
| 2026-05-07 18:08 | 22.35374 | 51.23773 | 32883 ft | 475 kts | 7° |
| 2026-05-07 18:08 | 22.41904 | 51.24932 | 32886 ft | 476 kts | 7° |
| 2026-05-07 18:09 | 22.48428 | 51.26094 | 32889 ft | 476 kts | 7° |
| 2026-05-07 18:09 | 22.54963 | 51.27247 | 32889 ft | 476 kts | 7° |
| 2026-05-07 18:10 | 22.61500 | 51.28412 | 32886 ft | 476 kts | 7° |
| 2026-05-07 18:10 | 22.68038 | 51.29582 | 32892 ft | 476 kts | 7° |
| 2026-05-07 18:11 | 22.74576 | 51.30745 | 32886 ft | 476 kts | 7° |
| 2026-05-07 18:11 | 22.81119 | 51.31908 | 32888 ft | 477 kts | 7° |
| 2026-05-07 18:12 | 22.87666 | 51.33070 | 32879 ft | 477 kts | 7° |
| 2026-05-07 18:12 | 22.94213 | 51.34244 | 32873 ft | 477 kts | 7° |
| 2026-05-07 18:13 | 23.00761 | 51.35421 | 32869 ft | 477 kts | 7° |
| 2026-05-07 18:13 | 23.07310 | 51.36598 | 32864 ft | 477 kts | 7° |
| 2026-05-07 18:14 | 23.13863 | 51.37773 | 32862 ft | 477 kts | 7° |
| 2026-05-07 18:14 | 23.20418 | 51.38948 | 32861 ft | 477 kts | 7° |
| 2026-05-07 18:15 | 23.26973 | 51.40128 | 32861 ft | 477 kts | 7° |
| 2026-05-07 18:15 | 23.33530 | 51.41306 | 32861 ft | 478 kts | 6° |
| 2026-05-07 18:16 | 23.40087 | 51.42480 | 32865 ft | 478 kts | 6° |
| 2026-05-07 18:16 | 23.46650 | 51.43662 | 32863 ft | 478 kts | 6° |
| 2026-05-07 18:17 | 23.53215 | 51.44852 | 32865 ft | 478 kts | 6° |
| 2026-05-07 18:17 | 23.59777 | 51.46040 | 32866 ft | 478 kts | 6° |
| 2026-05-07 18:18 | 23.66338 | 51.47226 | 32865 ft | 478 kts | 6° |
| 2026-05-07 18:18 | 23.72900 | 51.48412 | 32867 ft | 478 kts | 6° |
| 2026-05-07 18:19 | 23.79463 | 51.49598 | 32865 ft | 478 kts | 6° |
| 2026-05-07 18:19 | 23.86025 | 51.50786 | 32863 ft | 478 kts | 6° |
| 2026-05-07 18:20 | 23.92587 | 51.51974 | 32864 ft | 478 kts | 6° |
| 2026-05-07 18:20 | 23.99138 | 51.53165 | 32862 ft | 478 kts | 6° |
| 2026-05-07 18:21 | 24.04595 | 51.54158 | 32860 ft | 478 kts | 6° |
| 2026-05-07 18:21 | 24.11100 | 51.55347 | 32846 ft | 466 kts | 6° |
| 2026-05-07 18:22 | 24.17467 | 51.56509 | 32673 ft | 463 kts | 6° |
| 2026-05-07 18:22 | 24.19616 | 51.56902 | 32505 ft | 462 kts | 6° |
| 2026-05-07 18:22 | 24.23816 | 51.57670 | 32174 ft | 462 kts | 6° |
| 2026-05-07 18:22 | 24.26989 | 51.58251 | 31923 ft | 461 kts | 6° |
| 2026-05-07 18:23 | 24.30144 | 51.58787 | 31670 ft | 458 kts | 2° |
| 2026-05-07 18:23 | 24.33301 | 51.58882 | 31391 ft | 450 kts | 353° |
| 2026-05-07 18:23 | 24.36383 | 51.58471 | 30856 ft | 443 kts | 346° |
| 2026-05-07 18:23 | 24.39403 | 51.57875 | 30327 ft | 441 kts | 346° |
| 2026-05-07 18:24 | 24.42413 | 51.57281 | 29793 ft | 438 kts | 345° |
| 2026-05-07 18:24 | 24.45411 | 51.56689 | 29267 ft | 436 kts | 346° |
| 2026-05-07 18:24 | 24.48389 | 51.56103 | 28742 ft | 433 kts | 346° |
| 2026-05-07 18:24 | 24.51347 | 51.55522 | 28219 ft | 431 kts | 346° |
| 2026-05-07 18:25 | 24.54290 | 51.54943 | 27711 ft | 429 kts | 347° |
| 2026-05-07 18:25 | 24.57221 | 51.54369 | 27209 ft | 426 kts | 347° |
| 2026-05-07 18:25 | 24.60126 | 51.53802 | 26723 ft | 424 kts | 347° |
| 2026-05-07 18:25 | 24.63024 | 51.53236 | 26246 ft | 421 kts | 347° |
| 2026-05-07 18:26 | 24.65826 | 51.52393 | 25784 ft | 416 kts | 336° |
| 2026-05-07 18:26 | 24.68430 | 51.50979 | 25325 ft | 410 kts | 326° |
| 2026-05-07 18:26 | 24.70696 | 51.49103 | 24882 ft | 406 kts | 315° |
| 2026-05-07 18:26 | 24.72607 | 51.46844 | 24453 ft | 402 kts | 308° |
| 2026-05-07 18:27 | 24.74407 | 51.44496 | 24014 ft | 400 kts | 309° |
| 2026-05-07 18:27 | 24.76200 | 51.42162 | 23563 ft | 399 kts | 309° |
| 2026-05-07 18:27 | 24.77989 | 51.39835 | 23125 ft | 397 kts | 309° |
| 2026-05-07 18:27 | 24.79763 | 51.37525 | 22659 ft | 395 kts | 309° |
| 2026-05-07 18:28 | 24.81511 | 51.35254 | 22194 ft | 393 kts | 309° |
| 2026-05-07 18:28 | 24.83271 | 51.32970 | 21732 ft | 391 kts | 309° |
| 2026-05-07 18:28 | 24.85021 | 51.30690 | 21258 ft | 388 kts | 309° |
| 2026-05-07 18:28 | 24.86793 | 51.28463 | 20770 ft | 387 kts | 314° |
| 2026-05-07 18:29 | 24.88898 | 51.26574 | 20266 ft | 386 kts | 326° |
| 2026-05-07 18:29 | 24.91237 | 51.25206 | 19722 ft | 386 kts | 335° |
| 2026-05-07 18:29 | 24.93678 | 51.23980 | 19174 ft | 385 kts | 335° |
| 2026-05-07 18:29 | 24.96136 | 51.22738 | 18621 ft | 383 kts | 335° |
| 2026-05-07 18:30 | 24.98553 | 51.21510 | 18074 ft | 382 kts | 335° |
| 2026-05-07 18:30 | 25.00933 | 51.20296 | 17531 ft | 381 kts | 335° |
| 2026-05-07 18:30 | 25.03365 | 51.19055 | 16971 ft | 380 kts | 335° |
| 2026-05-07 18:30 | 25.05727 | 51.17851 | 16442 ft | 378 kts | 335° |
| 2026-05-07 18:31 | 25.08111 | 51.16636 | 15889 ft | 376 kts | 335° |
| 2026-05-07 18:31 | 25.10482 | 51.15431 | 15354 ft | 374 kts | 335° |
| 2026-05-07 18:31 | 25.12839 | 51.14232 | 14813 ft | 372 kts | 335° |
| 2026-05-07 18:31 | 25.15215 | 51.13019 | 14278 ft | 370 kts | 335° |
| 2026-05-07 18:32 | 25.17512 | 51.11854 | 13744 ft | 367 kts | 337° |
| 2026-05-07 18:32 | 25.19968 | 51.11178 | 13218 ft | 363 kts | 359° |
| 2026-05-07 18:32 | 25.22420 | 51.11551 | 12814 ft | 354 kts | 20° |
| 2026-05-07 18:32 | 25.24555 | 51.12842 | 12300 ft | 349 kts | 41° |
| 2026-05-07 18:33 | 25.26102 | 51.14873 | 11685 ft | 347 kts | 62° |
| 2026-05-07 18:33 | 25.26881 | 51.17404 | 11116 ft | 344 kts | 83° |
| 2026-05-07 18:33 | 25.26974 | 51.20033 | 10580 ft | 341 kts | 90° |
| 2026-05-07 18:33 | 25.26996 | 51.22647 | 10096 ft | 336 kts | 90° |
| 2026-05-07 18:34 | 25.26988 | 51.25149 | 9956 ft | 315 kts | 95° |
| 2026-05-07 18:34 | 25.26617 | 51.27450 | 9563 ft | 301 kts | 103° |
| 2026-05-07 18:34 | 25.26158 | 51.29624 | 9209 ft | 294 kts | 103° |
| 2026-05-07 18:34 | 25.25681 | 51.31851 | 9066 ft | 296 kts | 103° |
| 2026-05-07 18:35 | 25.25214 | 51.34028 | 8793 ft | 295 kts | 103° |
| 2026-05-07 18:35 | 25.24742 | 51.36222 | 8485 ft | 293 kts | 103° |
| 2026-05-07 18:35 | 25.24273 | 51.38407 | 8174 ft | 292 kts | 103° |
| 2026-05-07 18:35 | 25.23808 | 51.40585 | 7870 ft | 291 kts | 103° |
| 2026-05-07 18:36 | 25.23338 | 51.42784 | 7553 ft | 290 kts | 103° |
| 2026-05-07 18:36 | 25.22878 | 51.44917 | 7252 ft | 289 kts | 104° |
| 2026-05-07 18:36 | 25.22126 | 51.46961 | 6944 ft | 288 kts | 122° |
| 2026-05-07 18:36 | 25.20815 | 51.48617 | 6629 ft | 287 kts | 141° |
| 2026-05-07 18:37 | 25.19092 | 51.49712 | 6330 ft | 286 kts | 158° |
| 2026-05-07 18:37 | 25.17237 | 51.50522 | 6023 ft | 286 kts | 158° |
| 2026-05-07 18:37 | 25.15369 | 51.51342 | 5715 ft | 285 kts | 158° |
| 2026-05-07 18:37 | 25.13558 | 51.52142 | 5420 ft | 284 kts | 158° |
| 2026-05-07 18:38 | 25.11725 | 51.52954 | 5125 ft | 284 kts | 158° |
| 2026-05-07 18:38 | 25.09898 | 51.53759 | 4834 ft | 283 kts | 158° |
| 2026-05-07 18:38 | 25.08065 | 51.54565 | 4526 ft | 283 kts | 158° |
| 2026-05-07 18:38 | 25.06239 | 51.55368 | 4235 ft | 283 kts | 158° |
| 2026-05-07 18:39 | 25.04409 | 51.56173 | 3917 ft | 282 kts | 158° |
| 2026-05-07 18:39 | 25.02599 | 51.56971 | 3710 ft | 276 kts | 158° |
| 2026-05-07 18:39 | 25.00866 | 51.57799 | 3575 ft | 266 kts | 148° |
| 2026-05-07 18:39 | 24.99656 | 51.59227 | 3477 ft | 250 kts | 112° |
| 2026-05-07 18:40 | 24.99374 | 51.61058 | 3489 ft | 243 kts | 79° |
| 2026-05-07 18:40 | 24.99897 | 51.62803 | 3483 ft | 241 kts | 65° |
| 2026-05-07 18:40 | 25.00539 | 51.64511 | 3485 ft | 242 kts | 65° |
| 2026-05-07 18:40 | 25.01168 | 51.66231 | 3486 ft | 240 kts | 65° |
| 2026-05-07 18:41 | 25.01781 | 51.67877 | 3474 ft | 224 kts | 60° |
| 2026-05-07 18:41 | 25.02729 | 51.69107 | 3475 ft | 202 kts | 30° |
| 2026-05-07 18:41 | 25.03990 | 51.69627 | 3477 ft | 192 kts | 3° |
| 2026-05-07 18:41 | 25.05295 | 51.69448 | 3480 ft | 190 kts | 339° |
| 2026-05-07 18:42 | 25.06524 | 51.68905 | 3483 ft | 191 kts | 338° |
| 2026-05-07 18:42 | 25.07727 | 51.68375 | 3515 ft | 178 kts | 338° |
| 2026-05-07 18:42 | 25.08826 | 51.67893 | 3465 ft | 164 kts | 338° |
| 2026-05-07 18:42 | 25.09878 | 51.67431 | 3272 ft | 161 kts | 338° |
| 2026-05-07 18:43 | 25.10892 | 51.66986 | 3091 ft | 150 kts | 338° |
| 2026-05-07 18:43 | 25.11825 | 51.66575 | 2893 ft | 141 kts | 338° |
| 2026-05-07 18:43 | 25.12721 | 51.66181 | 2709 ft | 137 kts | 338° |
| 2026-05-07 18:43 | 25.13600 | 51.65795 | 2528 ft | 136 kts | 338° |
| 2026-05-07 18:44 | 25.14473 | 51.65412 | 2352 ft | 134 kts | 338° |
| 2026-05-07 18:44 | 25.15339 | 51.65031 | 2168 ft | 133 kts | 338° |
| 2026-05-07 18:44 | 25.16198 | 51.64653 | 1997 ft | 133 kts | 338° |
| 2026-05-07 18:44 | 25.17053 | 51.64277 | 1822 ft | 132 kts | 338° |
| 2026-05-07 18:45 | 25.17901 | 51.63904 | 1647 ft | 131 kts | 339° |
| 2026-05-07 18:45 | 25.18749 | 51.63532 | 1469 ft | 131 kts | 339° |
| 2026-05-07 18:45 | 25.19593 | 51.63161 | 1299 ft | 130 kts | 339° |
| 2026-05-07 18:45 | 25.20433 | 51.62791 | 1123 ft | 130 kts | 339° |
| 2026-05-07 18:46 | 25.21267 | 51.62422 | 955 ft | 129 kts | 339° |
| 2026-05-07 18:46 | 25.22100 | 51.62053 | 787 ft | 129 kts | 339° |
| 2026-05-07 18:46 | 25.22930 | 51.61684 | 620 ft | 128 kts | 339° |
| 2026-05-07 18:46 | 25.23762 | 51.61321 | 434 ft | 129 kts | 339° |
| 2026-05-07 18:47 | 25.24595 | 51.60956 | 271 ft | 129 kts | 339° |
| 2026-05-07 18:47 | 25.25432 | 51.60584 | 104 ft | 130 kts | 338° |
| 2026-05-07 18:47 | 25.26250 | 51.60210 | 30 ft | 116 kts | 338° |
| 2026-05-07 18:47 | 25.26853 | 51.59950 | 25 ft | 69 kts | 339° |
| 2026-05-07 18:48 | 25.27139 | 51.59830 | 29 ft | 19 kts | 339° |
| 2026-05-07 18:48 | 25.27143 | 51.59828 | 26 ft | 17 kts | 339° |
| 2026-05-07 18:48 | 25.27157 | 51.59823 | 28 ft | 1 kts | 339° |
| 2026-05-07 18:49 | 25.27167 | 51.59819 | 26 ft | 3 kts | 339° |
| 2026-05-07 18:49 | 25.27174 | 51.59816 | 29 ft | 4 kts | 339° |
| 2026-05-07 18:49 | 25.27196 | 51.59806 | 27 ft | 2 kts | 339° |
| 2026-05-07 18:50 | 25.27222 | 51.59795 | 26 ft | 6 kts | 339° |
| 2026-05-07 18:50 | 25.27228 | 51.59793 | 26 ft | 1 kts | 339° |